createdAt,value
2022-10-16T00:00:01.040Z,15.84
2022-10-16T00:02:49.217Z,15.79
2022-10-16T00:05:45.587Z,15.76
2022-10-16T00:08:33.917Z,15.73
2022-10-16T00:11:34.484Z,15.71
2022-10-16T00:14:22.614Z,15.64
2022-10-16T00:17:10.770Z,15.68
2022-10-16T00:19:59.218Z,15.62
2022-10-16T00:22:47.314Z,15.61
2022-10-16T00:25:35.431Z,15.59
2022-10-16T00:28:24.011Z,15.55
2022-10-16T00:31:13.870Z,15.57
2022-10-16T00:34:02.324Z,15.54
2022-10-16T00:36:50.500Z,15.56
2022-10-16T00:39:39.088Z,15.63
2022-10-16T00:42:27.714Z,15.62
2022-10-16T00:45:16.454Z,15.60
2022-10-16T00:50:53.602Z,15.65
2022-10-16T00:53:42.097Z,15.64
2022-10-16T00:56:30.299Z,15.64
2022-10-16T00:59:28.496Z,15.69
2022-10-16T01:02:17.796Z,15.63
2022-10-16T01:05:07.025Z,15.63
2022-10-16T01:08:43.440Z,15.63
2022-10-16T01:11:43.210Z,15.61
2022-10-16T01:14:55.240Z,15.60
2022-10-16T01:18:06.185Z,15.56
2022-10-16T01:21:17.944Z,15.50
2022-10-16T01:24:33.705Z,15.51
2022-10-16T01:27:31.479Z,15.43
2022-10-16T01:30:28.822Z,15.45
2022-10-16T01:33:25.985Z,15.42
2022-10-16T01:36:26.006Z,15.40
2022-10-16T01:39:15.605Z,15.35
2022-10-16T01:42:20.076Z,15.35
2022-10-16T01:45:12.378Z,15.35
2022-10-16T01:48:06.225Z,15.37
2022-10-16T01:51:10.528Z,15.34
2022-10-16T01:54:02.232Z,15.39
2022-10-16T01:56:51.070Z,15.41
2022-10-16T01:59:46.382Z,15.36
2022-10-16T02:02:35.587Z,15.38
2022-10-16T02:05:34.962Z,15.37
2022-10-16T02:08:26.082Z,15.37
2022-10-16T02:11:14.231Z,15.34
2022-10-16T02:14:07.602Z,15.32
2022-10-16T02:16:55.756Z,15.36
2022-10-16T02:19:46.614Z,15.35
2022-10-16T02:22:39.270Z,15.34
2022-10-16T02:25:36.192Z,15.33
2022-10-16T02:28:31.825Z,15.35
2022-10-16T02:31:28.797Z,15.34
2022-10-16T02:34:17.802Z,15.34
2022-10-16T02:37:07.850Z,15.31
2022-10-16T02:39:58.971Z,15.24
2022-10-16T02:42:55.570Z,15.24
2022-10-16T02:45:43.815Z,15.21
2022-10-16T02:48:32.002Z,15.21
2022-10-16T02:51:20.218Z,15.24
2022-10-16T02:54:08.554Z,15.25
2022-10-16T02:56:56.626Z,15.29
2022-10-16T02:59:45.242Z,15.24
2022-10-16T03:02:33.401Z,15.20
2022-10-16T03:08:10.521Z,15.21
2022-10-16T03:10:58.755Z,15.16
2022-10-16T03:13:49.542Z,15.16
2022-10-16T03:16:37.643Z,15.19
2022-10-16T03:19:25.818Z,15.17
2022-10-16T03:22:13.966Z,15.11
2022-10-16T03:25:02.389Z,15.09
2022-10-16T03:27:50.567Z,15.07
2022-10-16T03:30:40.723Z,15.07
2022-10-16T03:33:28.963Z,15.10
2022-10-16T03:36:17.162Z,15.05
2022-10-16T03:39:05.350Z,14.95
2022-10-16T03:41:53.431Z,14.96
2022-10-16T03:44:41.622Z,14.99
2022-10-16T03:47:29.911Z,14.93
2022-10-16T03:50:18.219Z,14.97
2022-10-16T03:53:07.062Z,15.06
2022-10-16T03:55:55.270Z,15.03
2022-10-16T03:58:43.403Z,15.04
2022-10-16T04:01:31.560Z,15.04
2022-10-16T04:04:19.801Z,14.98
2022-10-16T04:07:08.104Z,15.02
2022-10-16T04:09:56.383Z,15.02
2022-10-16T04:12:44.476Z,15.02
2022-10-16T04:15:32.608Z,14.96
2022-10-16T04:18:20.750Z,15.01
2022-10-16T04:21:09.294Z,14.96
2022-10-16T04:23:57.424Z,14.89
2022-10-16T04:26:45.567Z,14.81
2022-10-16T04:29:33.738Z,14.85
2022-10-16T04:32:22.179Z,14.89
2022-10-16T04:35:10.445Z,14.94
2022-10-16T04:37:59.777Z,14.89
2022-10-16T04:40:47.915Z,14.93
2022-10-16T04:43:36.084Z,14.94
2022-10-16T04:46:24.214Z,14.89
2022-10-16T04:49:12.421Z,14.86
2022-10-16T04:52:00.615Z,14.83
2022-10-16T04:54:48.729Z,14.85
2022-10-16T04:57:36.911Z,14.87
2022-10-16T05:00:25.079Z,14.79
2022-10-16T05:03:14.683Z,14.81
2022-10-16T05:06:02.951Z,14.75
2022-10-16T05:08:51.118Z,14.69
2022-10-16T05:11:39.328Z,14.69
2022-10-16T05:14:27.600Z,14.68
2022-10-16T05:17:15.872Z,14.75
2022-10-16T05:20:04.715Z,14.76
2022-10-16T05:22:52.916Z,14.70
2022-10-16T05:25:41.112Z,14.71
2022-10-16T05:28:31.418Z,14.71
2022-10-16T05:31:20.817Z,14.71
2022-10-16T05:34:09.043Z,14.68
2022-10-16T05:36:57.763Z,14.69
2022-10-16T05:39:46.961Z,14.74
2022-10-16T05:42:35.076Z,14.78
2022-10-16T05:45:23.285Z,14.73
2022-10-16T05:48:11.401Z,14.74
2022-10-16T05:51:04.610Z,14.70
2022-10-16T05:53:53.885Z,14.67
2022-10-16T05:56:42.100Z,14.67
2022-10-16T05:59:30.232Z,14.67
2022-10-16T06:02:18.406Z,14.68
2022-10-16T06:05:07.178Z,14.69
2022-10-16T06:07:55.280Z,14.63
2022-10-16T06:10:44.835Z,14.66
2022-10-16T06:13:33.161Z,14.67
2022-10-16T06:16:21.625Z,14.66
2022-10-16T06:19:10.400Z,14.66
2022-10-16T06:21:59.534Z,14.70
2022-10-16T06:24:48.694Z,14.75
2022-10-16T06:27:36.835Z,14.77
2022-10-16T06:30:24.966Z,14.79
2022-10-16T06:33:13.514Z,14.76
2022-10-16T06:36:11.794Z,14.85
2022-10-16T06:38:59.947Z,14.85
2022-10-16T06:41:48.134Z,14.87
2022-10-16T06:44:38.935Z,14.91
2022-10-16T06:47:27.146Z,14.94
2022-10-16T06:50:15.446Z,14.98
2022-10-16T06:53:03.534Z,14.99
2022-10-16T06:55:51.951Z,14.97
2022-10-16T06:58:41.139Z,14.99
2022-10-16T07:01:30.270Z,15.03
2022-10-16T07:04:18.543Z,15.09
2022-10-16T07:07:08.694Z,15.10
2022-10-16T07:09:57.759Z,15.16
2022-10-16T07:12:46.295Z,15.20
2022-10-16T07:15:35.095Z,15.25
2022-10-16T07:18:27.334Z,15.32
2022-10-16T07:21:20.344Z,15.32
2022-10-16T07:24:17.371Z,15.41
2022-10-16T07:27:05.490Z,15.38
2022-10-16T07:29:53.647Z,15.50
2022-10-16T07:32:41.768Z,15.52
2022-10-16T07:35:29.905Z,15.56
2022-10-16T07:38:18.771Z,15.53
2022-10-16T07:41:10.089Z,15.58
2022-10-16T07:44:01.254Z,15.61
2022-10-16T07:46:49.643Z,15.73
2022-10-16T07:49:37.722Z,15.81
2022-10-16T07:52:25.905Z,15.77
2022-10-16T07:55:14.385Z,15.81
2022-10-16T07:58:02.625Z,15.79
2022-10-16T08:00:50.731Z,15.84
2022-10-16T08:03:39.004Z,15.81
2022-10-16T08:06:28.203Z,15.81
2022-10-16T08:09:16.469Z,15.82
2022-10-16T08:12:05.377Z,15.83
2022-10-16T08:14:53.610Z,15.86
2022-10-16T08:17:41.801Z,15.94
2022-10-16T08:20:31.717Z,15.92
2022-10-16T08:23:20.027Z,15.98
2022-10-16T08:26:09.910Z,16.04
2022-10-16T08:28:58.188Z,16.13
2022-10-16T08:31:46.408Z,16.18
2022-10-16T08:34:35.211Z,16.20
2022-10-16T08:37:23.383Z,16.21
2022-10-16T08:40:33.489Z,16.15
2022-10-16T08:43:24.257Z,16.11
2022-10-16T08:46:28.436Z,16.15
2022-10-16T08:49:17.226Z,16.37
2022-10-16T08:52:05.870Z,16.54
2022-10-16T08:54:56.677Z,16.71
2022-10-16T08:57:45.207Z,17.09
2022-10-16T09:00:34.423Z,17.19
2022-10-16T09:03:49.318Z,17.36
2022-10-16T09:07:10.971Z,17.42
2022-10-16T09:10:39.612Z,17.61
2022-10-16T09:13:51.762Z,17.54
2022-10-16T09:16:55.051Z,17.42
2022-10-16T09:20:26.334Z,17.66
2022-10-16T09:23:19.329Z,17.90
2022-10-16T09:26:13.137Z,18.01
2022-10-16T09:29:01.436Z,18.07
2022-10-16T09:31:50.100Z,18.09
2022-10-16T09:34:45.357Z,18.18
2022-10-16T09:37:33.621Z,18.01
2022-10-16T09:40:35.753Z,18.00
2022-10-16T09:43:23.797Z,18.01
2022-10-16T09:46:34.701Z,18.10
2022-10-16T09:49:26.589Z,18.34
2022-10-16T09:52:16.540Z,18.47
2022-10-16T09:55:17.498Z,18.35
2022-10-16T09:58:14.743Z,18.51
2022-10-16T10:01:02.896Z,18.42
2022-10-16T10:03:58.623Z,18.37
2022-10-16T10:06:54.163Z,18.43
2022-10-16T10:09:46.965Z,18.48
2022-10-16T10:12:37.563Z,18.53
2022-10-16T10:15:27.990Z,18.63
2022-10-16T10:18:21.072Z,18.69
2022-10-16T10:21:16.751Z,18.78
2022-10-16T10:24:06.151Z,18.84
2022-10-16T10:27:17.975Z,18.97
2022-10-16T10:30:14.867Z,19.15
2022-10-16T10:34:00.139Z,19.02
2022-10-16T10:37:19.556Z,19.32
2022-10-16T10:40:46.160Z,19.53
2022-10-16T10:43:49.136Z,19.44
2022-10-16T10:46:52.441Z,19.69
2022-10-16T10:50:12.231Z,19.92
2022-10-16T10:53:43.846Z,19.84
2022-10-16T10:56:47.376Z,20.22
2022-10-16T10:59:50.034Z,20.54
2022-10-16T11:02:59.827Z,20.85
2022-10-16T11:05:55.908Z,21.26
2022-10-16T11:09:13.919Z,21.56
2022-10-16T11:12:27.369Z,21.59
2022-10-16T11:15:33.245Z,21.64
2022-10-16T11:18:57.078Z,22.14
2022-10-16T11:21:55.818Z,22.09
2022-10-16T11:25:15.238Z,22.18
2022-10-16T11:28:31.590Z,21.91
2022-10-16T11:31:22.755Z,22.01
2022-10-16T11:34:44.286Z,22.17
2022-10-16T11:37:39.321Z,21.89
2022-10-16T11:40:34.734Z,21.96
2022-10-16T11:43:53.048Z,22.81
2022-10-16T11:46:59.089Z,23.32
2022-10-16T11:49:58.861Z,22.07
2022-10-16T11:53:21.112Z,22.52
2022-10-16T11:56:09.668Z,21.68
2022-10-16T11:59:05.298Z,21.58
2022-10-16T12:02:35.114Z,21.95
2022-10-16T12:05:35.635Z,21.95
2022-10-16T12:08:24.507Z,21.71
2022-10-16T12:11:27.705Z,21.38
2022-10-16T12:14:16.164Z,21.47
2022-10-16T12:17:22.292Z,21.83
2022-10-16T12:20:13.445Z,21.92
2022-10-16T12:23:07.441Z,21.99
2022-10-16T12:25:58.944Z,21.65
2022-10-16T12:28:49.627Z,21.64
2022-10-16T12:31:57.439Z,22.20
2022-10-16T12:34:46.804Z,22.23
2022-10-16T12:37:37.182Z,22.13
2022-10-16T12:40:33.480Z,22.13
2022-10-16T12:43:26.032Z,22.14
2022-10-16T12:46:17.385Z,21.91
2022-10-16T12:49:14.416Z,21.63
2022-10-16T12:52:02.938Z,21.45
2022-10-16T12:54:52.147Z,21.43
2022-10-16T12:58:38.234Z,21.42
2022-10-16T13:01:53.465Z,21.06
2022-10-16T13:05:04.664Z,21.16
2022-10-16T13:08:14.397Z,21.06
2022-10-16T13:11:56.758Z,20.99
2022-10-16T13:15:03.370Z,21.04
2022-10-16T13:18:04.203Z,20.92
2022-10-16T13:21:19.037Z,21.23
2022-10-16T13:24:41.268Z,21.18
2022-10-16T13:28:02.909Z,21.20
2022-10-16T13:30:58.131Z,21.08
2022-10-16T13:33:53.765Z,21.55
2022-10-16T13:36:51.769Z,21.04
2022-10-16T13:39:40.233Z,20.96
2022-10-16T13:42:29.630Z,20.84
2022-10-16T13:45:24.390Z,20.83
2022-10-16T13:48:13.629Z,20.62
2022-10-16T13:51:15.225Z,20.66
2022-10-16T13:54:04.008Z,20.73
2022-10-16T13:57:03.135Z,20.83
2022-10-16T13:59:57.613Z,20.81
2022-10-16T14:02:46.344Z,20.65
2022-10-16T14:05:35.346Z,20.71
2022-10-16T14:08:26.405Z,20.64
2022-10-16T14:11:15.214Z,20.43
2022-10-16T14:14:03.981Z,20.27
2022-10-16T14:16:52.897Z,20.24
2022-10-16T14:19:41.611Z,20.21
2022-10-16T14:22:42.470Z,20.32
2022-10-16T14:25:33.768Z,20.14
2022-10-16T14:28:25.043Z,20.01
2022-10-16T14:31:34.379Z,19.98
2022-10-16T14:34:34.697Z,20.00
2022-10-16T14:37:28.303Z,20.07
2022-10-16T14:40:24.602Z,20.00
2022-10-16T14:43:23.994Z,20.05
2022-10-16T14:46:27.065Z,20.05
2022-10-16T14:49:21.345Z,20.12
2022-10-16T14:52:15.786Z,20.11
2022-10-16T14:55:04.544Z,20.17
2022-10-16T14:57:56.859Z,20.27
2022-10-16T15:00:48.291Z,20.36
2022-10-16T15:03:36.747Z,20.42
2022-10-16T15:06:25.240Z,20.65
2022-10-16T15:09:13.833Z,20.49
2022-10-16T15:12:02.281Z,20.60
2022-10-16T15:14:50.864Z,20.36
2022-10-16T15:17:39.345Z,20.30
2022-10-16T15:20:35.075Z,20.35
2022-10-16T15:23:24.246Z,20.34
2022-10-16T15:26:12.748Z,20.26
2022-10-16T15:29:01.191Z,20.28
2022-10-16T15:31:49.702Z,20.32
2022-10-16T15:34:38.250Z,20.44
2022-10-16T15:37:26.818Z,20.63
2022-10-16T15:40:15.740Z,20.53
2022-10-16T15:43:04.115Z,20.37
2022-10-16T15:46:06.682Z,20.23
2022-10-16T15:48:59.353Z,20.13
2022-10-16T15:51:47.943Z,20.27
2022-10-16T15:54:36.440Z,20.28
2022-10-16T15:57:25.067Z,20.35
2022-10-16T16:00:21.837Z,20.40
2022-10-16T16:03:10.581Z,20.40
2022-10-16T16:05:59.380Z,20.38
2022-10-16T16:08:47.399Z,20.30
2022-10-16T16:11:39.692Z,20.11
2022-10-16T16:14:29.052Z,20.06
2022-10-16T16:17:17.275Z,19.99
2022-10-16T16:20:06.552Z,19.89
2022-10-16T16:22:55.096Z,19.67
2022-10-16T16:25:43.465Z,19.53
2022-10-16T16:28:31.912Z,19.36
2022-10-16T16:31:20.649Z,19.05
2022-10-16T16:34:09.344Z,18.95
2022-10-16T16:36:58.083Z,18.95
2022-10-16T16:39:46.462Z,18.84
2022-10-16T16:42:34.867Z,18.82
2022-10-16T16:45:23.366Z,18.78
2022-10-16T16:48:11.800Z,18.53
2022-10-16T16:51:16.235Z,18.38
2022-10-16T16:54:05.257Z,18.26
2022-10-16T16:56:53.431Z,18.18
2022-10-16T16:59:41.945Z,18.16
2022-10-16T17:02:29.974Z,18.13
2022-10-16T17:05:19.435Z,18.06
2022-10-16T17:08:09.587Z,17.86
2022-10-16T17:10:58.898Z,17.73
2022-10-16T17:13:49.942Z,17.37
2022-10-16T17:16:44.698Z,17.31
2022-10-16T17:19:32.919Z,17.15
2022-10-16T17:22:21.880Z,16.91
2022-10-16T17:25:10.461Z,16.52
2022-10-16T17:27:58.934Z,16.67
2022-10-16T17:30:47.456Z,16.75
2022-10-16T17:33:35.906Z,16.79
2022-10-16T17:36:24.630Z,16.73
2022-10-16T17:39:15.484Z,16.60
2022-10-16T17:42:04.069Z,16.53
2022-10-16T17:44:52.449Z,16.39
2022-10-16T17:47:42.568Z,16.28
2022-10-16T17:50:31.121Z,16.17
2022-10-16T17:53:19.548Z,16.09
2022-10-16T17:56:13.884Z,16.05
2022-10-16T17:59:03.353Z,16.13
2022-10-16T18:01:51.912Z,16.21
2022-10-16T18:04:40.517Z,16.31
2022-10-16T18:07:29.184Z,16.31
2022-10-16T18:10:20.827Z,16.30
2022-10-16T18:13:10.882Z,16.27
2022-10-16T18:16:05.515Z,15.86
2022-10-16T18:18:57.173Z,16.02
2022-10-16T18:21:46.140Z,15.70
2022-10-16T18:24:34.697Z,15.89
2022-10-16T18:27:23.284Z,15.61
2022-10-16T18:30:12.226Z,15.76
2022-10-16T18:33:00.675Z,15.87
2022-10-16T18:35:49.207Z,15.33
2022-10-16T18:38:51.957Z,15.54
2022-10-16T18:42:00.201Z,15.72
2022-10-16T18:44:52.637Z,15.52
2022-10-16T18:47:41.410Z,15.41
2022-10-16T18:50:30.182Z,15.42
2022-10-16T18:53:18.952Z,15.29
2022-10-16T18:56:07.947Z,15.18
2022-10-16T18:58:59.337Z,15.25
2022-10-16T19:01:48.990Z,15.27
2022-10-16T19:04:37.541Z,15.27
2022-10-16T19:07:27.488Z,15.30
2022-10-16T19:10:16.491Z,15.34
2022-10-16T19:13:07.595Z,15.19
2022-10-16T19:16:09.447Z,15.10
2022-10-16T19:19:15.302Z,14.77
2022-10-16T19:22:28.230Z,14.87
2022-10-16T19:25:17.555Z,14.99
2022-10-16T19:28:08.073Z,14.71
2022-10-16T19:30:56.034Z,14.79
2022-10-16T19:33:44.318Z,14.93
2022-10-16T19:36:36.098Z,14.97
2022-10-16T19:39:25.291Z,15.00
2022-10-16T19:42:13.502Z,14.95
2022-10-16T19:45:01.843Z,14.91
2022-10-16T19:47:50.164Z,14.90
2022-10-16T19:50:45.160Z,14.82
2022-10-16T19:53:33.798Z,14.61
2022-10-16T19:56:23.217Z,14.48
2022-10-16T19:59:13.632Z,14.53
2022-10-16T20:02:01.973Z,14.59
2022-10-16T20:04:50.489Z,14.66
2022-10-16T20:07:38.655Z,14.43
2022-10-16T20:10:26.922Z,14.64
2022-10-16T20:13:15.164Z,14.36
2022-10-16T20:16:06.504Z,14.38
2022-10-16T20:18:55.443Z,14.31
2022-10-16T20:21:43.586Z,14.39
2022-10-16T20:24:31.834Z,14.14
2022-10-16T20:27:19.953Z,14.18
2022-10-16T20:30:09.082Z,14.14
2022-10-16T20:32:57.734Z,14.10
2022-10-16T20:35:48.975Z,14.04
2022-10-16T20:38:37.980Z,13.94
2022-10-16T20:41:26.917Z,13.71
2022-10-16T20:44:15.313Z,13.69
2022-10-16T20:47:03.695Z,13.67
2022-10-16T20:49:53.449Z,13.79
2022-10-16T20:52:42.096Z,13.75
2022-10-16T20:55:31.023Z,13.74
2022-10-16T20:58:19.412Z,13.75
2022-10-16T21:01:16.988Z,13.70
2022-10-16T21:04:08.238Z,13.63
2022-10-16T21:06:56.760Z,13.53
2022-10-16T21:09:45.153Z,13.58
2022-10-16T21:12:33.625Z,13.60
2022-10-16T21:15:22.401Z,13.46
2022-10-16T21:18:10.548Z,13.44
2022-10-16T21:20:59.086Z,13.44
2022-10-16T21:23:48.483Z,13.22
2022-10-16T21:26:36.526Z,13.18
2022-10-16T21:29:24.834Z,13.20
2022-10-16T21:32:13.026Z,13.22
2022-10-16T21:35:01.551Z,13.26
2022-10-16T21:37:50.367Z,13.44
2022-10-16T21:40:38.415Z,13.34
2022-10-16T21:43:26.564Z,13.34
2022-10-16T21:46:19.014Z,13.53
2022-10-16T21:49:14.420Z,13.57
2022-10-16T21:52:02.518Z,13.61
2022-10-16T21:54:50.634Z,13.54
2022-10-16T21:57:39.353Z,13.49
2022-10-16T22:00:27.467Z,13.48
2022-10-16T22:03:15.659Z,13.45
2022-10-16T22:06:07.292Z,13.79
2022-10-16T22:09:02.075Z,13.70
2022-10-16T22:11:51.112Z,13.44
2022-10-16T22:14:41.017Z,13.44
2022-10-16T22:17:30.030Z,13.52
2022-10-16T22:20:18.398Z,13.39
2022-10-16T22:23:06.556Z,13.24
2022-10-16T22:26:04.292Z,13.25
2022-10-16T22:28:52.670Z,13.19
2022-10-16T22:31:40.896Z,13.14
2022-10-16T22:34:29.687Z,13.25
2022-10-16T22:37:18.104Z,13.38
2022-10-16T22:40:06.983Z,13.49
2022-10-16T22:42:55.149Z,13.56
2022-10-16T22:45:43.670Z,13.56
2022-10-16T22:48:32.096Z,13.65
2022-10-16T22:51:20.628Z,13.55
2022-10-16T22:54:09.129Z,13.36
2022-10-16T22:56:57.090Z,13.18
2022-10-16T22:59:47.097Z,13.17
2022-10-16T23:02:35.199Z,13.27
2022-10-16T23:05:23.310Z,13.26
2022-10-16T23:08:14.358Z,13.17
2022-10-16T23:11:10.057Z,13.14
2022-10-16T23:13:58.695Z,13.17
2022-10-16T23:16:47.058Z,13.18
2022-10-16T23:19:35.456Z,13.06
2022-10-16T23:22:23.873Z,13.02
2022-10-16T23:25:12.290Z,12.91
2022-10-16T23:28:00.797Z,13.06
2022-10-16T23:30:49.641Z,13.11
2022-10-16T23:33:40.683Z,13.32
2022-10-16T23:36:29.440Z,13.19
2022-10-16T23:39:17.864Z,13.23
2022-10-16T23:42:06.213Z,13.21
2022-10-16T23:44:54.654Z,13.16
2022-10-16T23:47:43.083Z,13.02
2022-10-16T23:50:31.633Z,12.88
2022-10-16T23:53:20.216Z,12.92
2022-10-16T23:56:09.253Z,12.76
2022-10-16T23:58:57.742Z,12.64
